Time;durP1;ratioP1;P1;durP2;ratioP2;P2;SDS_P1;SDS_P2;PMS_P1;PMS_P2;Temp;Humidity;BMP_temperature;BMP_pressure;BME280_temperature;BME280_humidity;BME280_pressure;Samples;Min_cycle;Max_cycle;Signal;HPM_P1;HPM_P2
2023/03/23 00:00:21;;;;;;;30.53;15.63;;;14.20;91.30;;;;;;6065854;23;20289;-72
2023/03/23 00:02:48;;;;;;;30.20;15.40;;;14.20;91.40;;;;;;6062280;23;20817;-75
2023/03/23 00:05:15;;;;;;;28.47;15.10;;;14.20;91.40;;;;;;6065676;23;20289;-72
2023/03/23 00:07:44;;;;;;;28.10;14.67;;;14.20;91.40;;;;;;6039633;23;20178;-72
2023/03/23 00:10:12;;;;;;;30.27;15.90;;;14.20;91.40;;;;;;6064338;23;20523;-72
2023/03/23 00:12:41;;;;;;;28.73;14.97;;;14.20;91.40;;;;;;6063884;23;20249;-72
2023/03/23 00:15:12;;;;;;;31.40;15.43;;;14.20;91.40;;;;;;6064876;23;20502;-72
2023/03/23 00:17:43;;;;;;;32.53;14.80;;;14.30;91.40;;;;;;6063670;23;20159;-72
2023/03/23 00:20:12;;;;;;;29.73;15.60;;;14.30;91.30;;;;;;6040628;23;20514;-72
2023/03/23 00:22:40;;;;;;;30.43;14.20;;;14.30;91.30;;;;;;6038438;23;20170;-71
2023/03/23 00:25:09;;;;;;;28.70;14.67;;;14.30;91.30;;;;;;6063422;23;20250;-71
2023/03/23 00:27:36;;;;;;;30.67;16.00;;;14.30;91.30;;;;;;6039166;23;20206;-72
2023/03/23 00:30:04;;;;;;;31.03;15.93;;;14.30;91.30;;;;;;6064111;23;20217;-71
2023/03/23 00:32:31;;;;;;;38.07;17.07;;;14.20;91.30;;;;;;6065540;23;20170;-72
2023/03/23 00:35:00;;;;;;;29.30;15.63;;;14.20;91.30;;;;;;6064463;23;20202;-71
2023/03/23 00:37:27;;;;;;;31.80;16.40;;;14.20;91.40;;;;;;6064437;23;20175;-72
2023/03/23 00:39:57;;;;;;;28.87;15.80;;;14.20;91.40;;;;;;6040084;23;21004;-71
2023/03/23 00:42:25;;;;;;;29.27;16.17;;;14.10;91.30;;;;;;6064076;23;20522;-72
2023/03/23 00:44:59;;;;;;;34.05;18.25;;;14.10;91.20;;;;;;6064265;23;20419;-71
2023/03/23 00:47:27;;;;;;;28.53;15.37;;;14.10;91.60;;;;;;6065013;23;20159;-72
2023/03/23 00:49:55;;;;;;;32.23;16.70;;;14.00;91.50;;;;;;6063252;23;20178;-71
2023/03/23 00:52:25;;;;;;;31.13;15.63;;;14.00;91.40;;;;;;6065869;23;20181;-71
2023/03/23 00:54:52;;;;;;;28.30;14.23;;;14.00;91.30;;;;;;6040104;23;20630;-72
2023/03/23 00:57:19;;;;;;;30.03;15.13;;;14.00;91.20;;;;;;6063933;23;20648;-71
2023/03/23 00:59:47;;;;;;;27.67;15.97;;;13.90;91.10;;;;;;6064718;23;20170;-72
2023/03/23 01:02:16;;;;;;;29.07;15.47;;;13.90;91.00;;;;;;6064543;23;20189;-72
2023/03/23 01:04:44;;;;;;;26.73;14.30;;;13.90;91.00;;;;;;6063484;23;20202;-71
2023/03/23 01:07:12;;;;;;;29.93;14.97;;;13.90;90.90;;;;;;6065551;23;20483;-72
2023/03/23 01:09:44;;;;;;;25.43;13.57;;;13.90;90.90;;;;;;6065623;23;20226;-72
2023/03/23 01:12:12;;;;;;;26.03;13.93;;;13.80;90.80;;;;;;6066098;23;20163;-71
2023/03/23 01:14:39;;;;;;;31.50;14.93;;;13.80;90.80;;;;;;6064536;23;20691;-72
2023/03/23 01:17:06;;;;;;;32.23;15.03;;;13.70;90.70;;;;;;6064521;23;20181;-71
2023/03/23 01:19:34;;;;;;;30.70;15.03;;;13.80;90.70;;;;;;6065232;23;20684;-71
2023/03/23 01:22:01;;;;;;;27.13;14.87;;;13.70;90.70;;;;;;6066994;23;20174;-72
2023/03/23 01:24:28;;;;;;;31.20;15.77;;;13.70;90.70;;;;;;6063640;23;20201;-72
2023/03/23 01:26:57;;;;;;;31.60;15.97;;;13.70;90.70;;;;;;6066507;23;20206;-71
2023/03/23 01:29:24;;;;;;;29.53;14.90;;;13.60;90.70;;;;;;6067067;23;20171;-72
2023/03/23 01:31:51;;;;;;;29.07;15.53;;;13.60;90.70;;;;;;6064445;23;20174;-71
2023/03/23 01:34:18;;;;;;;32.77;16.23;;;13.50;90.60;;;;;;6064305;23;20171;-72
2023/03/23 01:36:45;;;;;;;30.90;13.97;;;13.50;90.60;;;;;;6066729;23;20181;-71
2023/03/23 01:39:13;;;;;;;30.70;15.00;;;13.40;90.50;;;;;;6065544;23;20167;-71
2023/03/23 01:41:41;;;;;;;29.73;15.07;;;13.50;90.60;;;;;;6064712;23;20257;-72
2023/03/23 01:44:48;;;;;;;28.67;15.50;;;13.40;90.60;;;;;;6065494;23;20199;-71
2023/03/23 01:47:15;;;;;;;33.77;15.47;;;13.40;90.60;;;;;;6064883;23;20174;-71
2023/03/23 01:49:46;;;;;;;31.70;15.87;;;13.30;90.50;;;;;;6066684;23;20257;-72
2023/03/23 01:52:17;;;;;;;34.13;16.67;;;13.40;90.60;;;;;;6064869;23;20546;-72
2023/03/23 01:54:46;;;;;;;34.47;16.37;;;13.40;90.60;;;;;;6064810;23;20577;-72
2023/03/23 01:57:16;;;;;;;32.67;16.00;;;13.40;90.60;;;;;;6034763;23;20672;-71
2023/03/23 01:59:50;;;;;;;28.97;15.47;;;13.40;90.50;;;;;;6060743;23;20202;-72
2023/03/23 02:02:18;;;;;;;31.93;15.77;;;13.40;90.50;;;;;;6036209;23;20214;-72
2023/03/23 02:04:45;;;;;;;27.53;14.73;;;13.40;90.50;;;;;;6037534;23;20271;-72
2023/03/23 02:07:14;;;;;;;39.27;17.87;;;13.30;90.50;;;;;;6034376;23;20552;-71
2023/03/23 02:09:42;;;;;;;33.10;15.93;;;13.30;90.50;;;;;;6037049;23;20723;-72
2023/03/23 02:12:10;;;;;;;35.70;16.23;;;13.30;90.50;;;;;;6038952;23;20230;-71
2023/03/23 02:14:37;;;;;;;31.27;16.43;;;13.20;90.50;;;;;;6035657;23;20171;-72
2023/03/23 02:17:10;;;;;;;34.73;16.33;;;13.20;90.50;;;;;;6059194;23;20602;-71
2023/03/23 02:20:06;;;;;;;34.00;17.07;;;13.20;90.50;;;;;;6061203;23;20640;-72
2023/03/23 02:23:06;;;;;;;32.50;15.83;;;13.10;90.50;;;;;;6036977;23;20172;-72
2023/03/23 02:25:56;;;;;;;45.97;17.37;;;13.10;90.50;;;;;;6022715;23;20575;-72
2023/03/23 02:28:46;;;;;;;43.23;17.70;;;13.00;90.40;;;;;;6038188;23;20179;-71
2023/03/23 02:31:39;;;;;;;37.90;15.83;;;13.00;90.50;;;;;;6006747;23;20171;-71
2023/03/23 02:34:13;;;;;;;40.70;15.97;;;13.00;90.50;;;;;;6036905;23;20492;-71
2023/03/23 02:36:46;;;;;;;32.97;15.17;;;12.90;90.50;;;;;;6034391;23;20185;-71
2023/03/23 02:39:20;;;;;;;23.93;12.33;;;13.00;90.50;;;;;;6061080;23;20222;-72
2023/03/23 02:41:51;;;;;;;25.87;10.80;;;12.90;90.60;;;;;;6038584;23;20163;-71
2023/03/23 02:44:19;;;;;;;18.33;10.60;;;13.00;90.60;;;;;;6060062;23;20243;-71
2023/03/23 02:46:47;;;;;;;25.17;11.10;;;12.90;90.50;;;;;;6037347;23;20214;-72
2023/03/23 02:49:18;;;;;;;22.63;9.77;;;12.90;90.50;;;;;;6037494;23;20171;-72
2023/03/23 02:51:47;;;;;;;13.93;8.80;;;12.90;90.40;;;;;;6060940;23;20250;-71
2023/03/23 02:54:17;;;;;;;17.10;9.07;;;12.90;90.30;;;;;;6037603;23;20179;-72
2023/03/23 02:56:45;;;;;;;20.03;9.40;;;12.90;90.30;;;;;;6039973;23;20285;-72
2023/03/23 02:59:13;;;;;;;22.13;9.07;;;12.90;90.30;;;;;;6065656;23;20162;-71
2023/03/23 03:01:54;;;;;;;16.10;9.10;;;12.80;90.30;;;;;;6040806;23;20229;-72
2023/03/23 03:04:26;;;;;;;18.83;8.50;;;12.80;90.10;;;;;;6063460;23;20187;-72
2023/03/23 03:07:12;;;;;;;18.80;9.13;;;12.80;90.10;;;;;;6065541;23;20548;-72
2023/03/23 03:09:47;;;;;;;16.03;9.43;;;12.80;90.20;;;;;;6064020;23;20171;-75
2023/03/23 03:12:21;;;;;;;18.47;9.20;;;12.70;90.10;;;;;;6067453;23;20170;-71
2023/03/23 03:14:58;;;;;;;15.43;8.83;;;12.70;90.10;;;;;;6038392;23;20166;-72
2023/03/23 03:17:26;;;;;;;17.93;9.37;;;12.60;90.00;;;;;;6063818;23;20504;-72
2023/03/23 03:19:59;;;;;;;18.83;9.47;;;12.60;90.00;;;;;;6066415;23;20223;-72
2023/03/23 03:22:29;;;;;;;28.47;10.37;;;12.60;90.10;;;;;;6040154;23;20179;-72
2023/03/23 03:24:59;;;;;;;21.37;9.47;;;12.60;90.20;;;;;;6034166;23;20194;-73
2023/03/23 03:27:27;;;;;;;22.90;9.83;;;12.60;90.20;;;;;;6059065;23;20179;-72
2023/03/23 03:29:58;;;;;;;17.40;10.60;;;12.50;90.20;;;;;;6063280;23;20183;-72
2023/03/23 03:32:31;;;;;;;15.80;10.27;;;12.50;90.20;;;;;;6064978;23;20166;-72
2023/03/23 03:35:03;;;;;;;20.30;10.37;;;12.50;90.20;;;;;;6064188;23;20483;-72
2023/03/23 03:37:37;;;;;;;15.00;9.40;;;12.50;90.20;;;;;;6059747;23;20202;-72
2023/03/23 03:40:10;;;;;;;20.17;10.37;;;12.50;90.20;;;;;;6062035;23;20182;-73
2023/03/23 03:42:38;;;;;;;19.23;9.30;;;12.40;90.10;;;;;;6060931;23;20612;-72
2023/03/23 03:45:08;;;;;;;15.40;9.87;;;12.40;90.10;;;;;;6061962;23;20568;-72
2023/03/23 03:47:35;;;;;;;15.70;9.03;;;12.40;90.20;;;;;;6011266;23;20174;-73
2023/03/23 03:50:05;;;;;;;15.87;9.03;;;12.40;90.20;;;;;;6040664;23;20570;-72
2023/03/23 03:52:32;;;;;;;15.80;9.77;;;12.40;90.10;;;;;;6038381;23;20242;-72
2023/03/23 03:55:00;;;;;;;15.63;9.80;;;12.30;90.10;;;;;;6065763;23;20243;-72
2023/03/23 03:57:27;;;;;;;17.57;10.07;;;12.30;90.10;;;;;;6037187;23;20972;-71
2023/03/23 03:59:54;;;;;;;22.43;9.93;;;12.30;90.10;;;;;;6061874;23;20175;-72
2023/03/23 04:02:22;;;;;;;20.23;10.97;;;12.30;90.10;;;;;;6063978;23;20189;-72
2023/03/23 04:04:49;;;;;;;19.13;10.77;;;12.30;90.10;;;;;;6062560;23;20371;-71
2023/03/23 04:07:18;;;;;;;18.00;10.10;;;12.20;90.10;;;;;;6060981;23;20183;-72
2023/03/23 04:09:47;;;;;;;18.67;9.87;;;12.20;90.10;;;;;;6061148;23;20182;-72
2023/03/23 04:12:14;;;;;;;16.57;9.63;;;12.20;90.20;;;;;;6061839;23;20182;-72
2023/03/23 04:14:42;;;;;;;22.27;11.07;;;12.20;90.20;;;;;;6059907;23;20178;-72
2023/03/23 04:17:09;;;;;;;16.67;10.17;;;12.20;90.20;;;;;;6037711;23;20170;-72
2023/03/23 04:19:37;;;;;;;16.93;9.77;;;12.20;90.20;;;;;;6064566;23;20277;-72
2023/03/23 04:22:06;;;;;;;16.87;9.67;;;12.10;90.20;;;;;;6064313;23;20209;-71
2023/03/23 04:24:35;;;;;;;16.73;9.20;;;12.20;90.30;;;;;;6060578;23;20605;-71
2023/03/23 04:27:03;;;;;;;18.97;9.80;;;12.20;90.30;;;;;;6038349;23;20174;-71
2023/03/23 04:29:30;;;;;;;15.47;8.70;;;12.20;90.30;;;;;;6062814;23;20401;-71
2023/03/23 04:31:57;;;;;;;13.77;9.03;;;12.20;90.20;;;;;;6063523;23;20174;-72
2023/03/23 04:34:25;;;;;;;18.77;9.93;;;12.10;90.20;;;;;;6066184;23;20478;-72
2023/03/23 04:36:52;;;;;;;14.77;9.67;;;12.10;90.30;;;;;;6065248;23;20185;-72
2023/03/23 04:39:20;;;;;;;16.63;9.77;;;12.10;90.30;;;;;;6038565;23;20189;-71
2023/03/23 04:41:48;;;;;;;18.37;10.03;;;12.10;90.30;;;;;;6064522;23;20202;-72
2023/03/23 04:44:17;;;;;;;18.40;10.70;;;12.10;90.30;;;;;;6065329;23;20170;-72
2023/03/23 04:46:49;;;;;;;16.13;9.70;;;12.10;90.30;;;;;;6063890;23;20178;-71
2023/03/23 04:49:21;;;;;;;17.70;10.43;;;12.10;90.30;;;;;;6064701;23;20612;-72
2023/03/23 04:51:50;;;;;;;16.83;10.30;;;12.10;90.30;;;;;;6039816;23;20246;-71
2023/03/23 04:54:18;;;;;;;17.30;9.47;;;12.10;90.30;;;;;;6065450;23;20233;-71
2023/03/23 04:56:45;;;;;;;19.27;10.60;;;12.10;90.40;;;;;;6066838;23;20206;-72
2023/03/23 04:59:14;;;;;;;17.97;10.20;;;12.00;90.40;;;;;;6064233;23;20800;-72
2023/03/23 05:01:45;;;;;;;20.27;11.20;;;12.00;90.50;;;;;;6065854;23;20182;-72
2023/03/23 05:04:16;;;;;;;16.30;10.30;;;12.00;90.40;;;;;;6041190;23;20179;-72
2023/03/23 05:06:45;;;;;;;16.97;10.00;;;12.00;90.60;;;;;;6065997;23;20684;-71
2023/03/23 05:09:12;;;;;;;13.97;8.97;;;12.00;90.60;;;;;;6066725;23;20252;-71
2023/03/23 05:11:40;;;;;;;17.20;9.03;;;12.00;90.60;;;;;;6039507;23;20183;-72
2023/03/23 05:14:07;;;;;;;16.40;8.37;;;12.00;90.70;;;;;;6065022;23;20185;-71
2023/03/23 05:16:37;;;;;;;17.57;8.53;;;12.00;90.60;;;;;;6066706;23;20495;-71
2023/03/23 05:19:05;;;;;;;16.67;9.33;;;12.00;90.60;;;;;;6064990;23;20171;-71
2023/03/23 05:21:32;;;;;;;18.07;8.90;;;12.00;90.70;;;;;;6063086;23;20183;-71
2023/03/23 05:24:00;;;;;;;25.20;9.17;;;11.90;90.70;;;;;;6063463;23;20508;-71
2023/03/23 05:26:28;;;;;;;15.57;9.13;;;11.90;90.80;;;;;;6064120;23;20197;-71
2023/03/23 05:28:56;;;;;;;15.80;9.73;;;11.90;90.80;;;;;;6064725;23;20182;-71
2023/03/23 05:31:24;;;;;;;18.83;9.57;;;11.90;90.90;;;;;;6064184;23;20207;-71
2023/03/23 05:33:52;;;;;;;16.77;9.70;;;11.80;90.90;;;;;;6064593;23;20185;-72
2023/03/23 05:36:20;;;;;;;20.57;11.10;;;11.80;90.90;;;;;;6040054;23;20170;-71
2023/03/23 05:38:47;;;;;;;19.10;10.93;;;11.80;90.90;;;;;;6066172;23;20181;-71
2023/03/23 05:41:15;;;;;;;19.10;10.53;;;11.80;90.90;;;;;;6065316;23;20175;-73
2023/03/23 05:43:42;;;;;;;18.90;11.13;;;11.90;91.00;;;;;;6062288;23;20214;-71
2023/03/23 05:46:10;;;;;;;22.40;10.40;;;11.90;91.00;;;;;;6040502;23;20898;-71
2023/03/23 05:48:38;;;;;;;27.17;11.57;;;11.90;91.00;;;;;;6066621;23;20171;-71
2023/03/23 05:51:06;;;;;;;24.50;11.70;;;12.00;91.10;;;;;;6066901;23;20202;-71
2023/03/23 05:53:35;;;;;;;26.10;12.63;;;12.00;91.10;;;;;;6065979;23;20179;-72
2023/03/23 05:56:04;;;;;;;30.13;13.50;;;12.00;91.20;;;;;;6067814;23;20206;-72
2023/03/23 05:58:32;;;;;;;30.33;13.20;;;12.00;91.20;;;;;;6041942;23;20218;-72
2023/03/23 06:00:59;;;;;;;28.07;13.03;;;12.00;91.10;;;;;;6067220;23;20179;-72
2023/03/23 06:03:27;;;;;;;38.33;15.27;;;12.00;91.20;;;;;;6067003;23;20213;-72
2023/03/23 06:05:54;;;;;;;34.40;14.57;;;12.00;91.20;;;;;;6065512;23;20274;-73
2023/03/23 06:08:22;;;;;;;33.30;14.73;;;12.00;91.30;;;;;;6066949;23;20540;-72
2023/03/23 06:10:50;;;;;;;34.67;15.93;;;12.00;91.90;;;;;;6066418;23;20209;-72
2023/03/23 06:13:18;;;;;;;35.73;16.07;;;12.00;91.60;;;;;;6066973;23;20213;-72
2023/03/23 06:15:45;;;;;;;37.83;15.30;;;12.00;91.70;;;;;;6064540;23;20736;-72
2023/03/23 06:18:12;;;;;;;34.07;14.40;;;12.00;91.70;;;;;;6064501;23;20253;-72
2023/03/23 06:20:40;;;;;;;35.83;15.27;;;12.10;91.80;;;;;;6067374;23;20179;-71
2023/03/23 06:23:08;;;;;;;30.73;15.93;;;12.10;91.90;;;;;;6062549;23;20635;-72
2023/03/23 06:25:37;;;;;;;35.00;16.77;;;12.10;92.00;;;;;;6061874;23;20273;-72
2023/03/23 06:28:04;;;;;;;34.43;15.90;;;12.10;92.10;;;;;;6065969;23;20178;-72
2023/03/23 06:30:31;;;;;;;30.97;15.17;;;12.10;92.10;;;;;;6066780;23;20175;-71
2023/03/23 06:32:59;;;;;;;30.20;15.33;;;12.20;92.10;;;;;;6063473;23;20257;-71
2023/03/23 06:35:26;;;;;;;32.57;16.20;;;12.20;92.10;;;;;;6065808;23;20206;-71
2023/03/23 06:37:53;;;;;;;36.00;17.43;;;12.20;92.00;;;;;;6066405;23;20253;-71
2023/03/23 06:40:21;;;;;;;37.47;18.07;;;12.20;92.00;;;;;;6065692;23;20205;-71
2023/03/23 06:42:50;;;;;;;32.37;17.13;;;12.30;92.00;;;;;;6039948;23;20188;-72
2023/03/23 06:45:19;;;;;;;30.80;17.30;;;12.30;92.00;;;;;;6065900;23;20190;-72
2023/03/23 06:47:48;;;;;;;33.00;18.70;;;12.40;91.80;;;;;;6064011;23;20174;-73
2023/03/23 06:50:16;;;;;;;38.30;19.20;;;12.40;91.80;;;;;;6039793;23;20175;-72
2023/03/23 06:52:47;;;;;;;35.63;18.53;;;12.30;91.40;;;;;;6067899;23;20174;-72
2023/03/23 06:55:14;;;;;;;35.77;17.63;;;12.30;91.40;;;;;;6063701;23;20173;-72
2023/03/23 06:57:42;;;;;;;37.43;19.17;;;12.20;91.50;;;;;;6040647;23;20202;-74
2023/03/23 07:00:14;;;;;;;33.37;18.00;;;12.20;91.40;;;;;;6063852;23;20178;-72
2023/03/23 07:02:41;;;;;;;39.63;20.20;;;12.20;91.40;;;;;;6041348;23;20487;-72
2023/03/23 07:05:09;;;;;;;38.57;20.10;;;12.30;91.50;;;;;;6066709;23;20170;-71
2023/03/23 07:07:37;;;;;;;38.13;21.50;;;12.30;91.50;;;;;;6066644;23;20206;-72
2023/03/23 07:10:06;;;;;;;40.37;19.77;;;12.40;91.50;;;;;;6064900;23;20521;-71
2023/03/23 07:12:35;;;;;;;35.40;19.57;;;12.40;91.50;;;;;;6064321;23;20263;-72
2023/03/23 07:15:03;;;;;;;36.43;20.57;;;12.50;91.40;;;;;;6038186;23;20230;-72
2023/03/23 07:17:32;;;;;;;38.90;20.77;;;12.60;91.40;;;;;;6067781;23;20177;-72
2023/03/23 07:19:59;;;;;;;39.37;21.13;;;12.70;91.40;;;;;;6067600;23;20621;-72
2023/03/23 07:22:26;;;;;;;39.77;21.33;;;12.80;91.40;;;;;;6067773;23;20258;-72
2023/03/23 07:24:54;;;;;;;36.30;19.33;;;12.90;91.30;;;;;;6067584;23;20171;-71
2023/03/23 07:27:21;;;;;;;40.50;20.83;;;12.90;91.30;;;;;;6067425;23;20257;-71
2023/03/23 07:29:49;;;;;;;44.27;21.03;;;13.10;91.40;;;;;;6067791;23;20174;-71
2023/03/23 07:32:17;;;;;;;40.77;20.50;;;13.10;91.40;;;;;;6065785;23;20206;-71
2023/03/23 07:34:46;;;;;;;44.57;22.17;;;13.20;91.30;;;;;;6065697;23;20178;-71
2023/03/23 07:37:13;;;;;;;33.27;18.37;;;13.30;91.40;;;;;;6064621;23;20174;-72
2023/03/23 07:39:41;;;;;;;36.77;20.27;;;13.30;91.30;;;;;;6065735;23;20182;-72
2023/03/23 07:42:08;;;;;;;37.67;19.70;;;13.40;91.40;;;;;;6065765;23;20170;-72
2023/03/23 07:44:36;;;;;;;34.50;17.97;;;13.50;91.30;;;;;;6063667;23;20177;-72
2023/03/23 07:47:03;;;;;;;34.60;17.47;;;13.50;91.70;;;;;;6063221;23;20190;-72
2023/03/23 07:49:31;;;;;;;29.83;16.27;;;13.60;91.30;;;;;;6065367;23;20210;-73
2023/03/23 07:52:01;;;;;;;28.87;15.37;;;13.70;91.30;;;;;;6064440;23;20209;-72
2023/03/23 07:54:28;;;;;;;28.87;16.30;;;13.70;91.30;;;;;;6037943;23;20234;-72
2023/03/23 07:56:55;;;;;;;28.03;15.00;;;13.80;91.30;;;;;;6062065;23;20293;-72
2023/03/23 07:59:22;;;;;;;26.73;15.33;;;13.80;91.40;;;;;;6065378;23;20174;-73
2023/03/23 08:01:49;;;;;;;29.17;16.13;;;13.90;91.40;;;;;;6066059;23;20250;-73
2023/03/23 08:04:17;;;;;;;31.87;16.20;;;14.00;91.50;;;;;;6065626;23;20175;-72
2023/03/23 08:06:45;;;;;;;26.67;16.20;;;14.00;91.70;;;;;;6063247;23;20258;-72
2023/03/23 08:09:13;;;;;;;29.77;15.57;;;14.10;91.40;;;;;;6061331;23;20179;-72
2023/03/23 08:11:44;;;;;;;33.80;17.40;;;14.10;91.40;;;;;;6065170;23;20588;-72
2023/03/23 08:14:12;;;;;;;31.70;17.00;;;14.20;91.40;;;;;;6062959;23;20245;-74
2023/03/23 08:16:39;;;;;;;30.23;16.07;;;14.20;91.40;;;;;;6062323;23;20181;-73
2023/03/23 08:19:06;;;;;;;31.20;16.73;;;14.30;91.30;;;;;;6064419;23;20179;-72
2023/03/23 08:21:34;;;;;;;29.93;17.23;;;14.30;91.40;;;;;;6064286;23;20333;-72
2023/03/23 08:24:02;;;;;;;32.20;16.80;;;14.40;91.50;;;;;;6064172;23;20174;-73
2023/03/23 08:26:30;;;;;;;33.47;18.30;;;14.40;91.70;;;;;;6039029;23;20573;-73
2023/03/23 08:28:58;;;;;;;33.87;18.50;;;14.50;91.70;;;;;;6039294;23;20174;-73
2023/03/23 08:31:25;;;;;;;32.77;18.00;;;14.40;91.70;;;;;;6064955;23;20174;-75
2023/03/23 08:33:52;;;;;;;35.70;18.73;;;14.40;91.80;;;;;;6064704;23;20174;-72
2023/03/23 08:36:20;;;;;;;31.60;18.43;;;14.40;91.70;;;;;;6065014;23;20178;-72
2023/03/23 08:38:47;;;;;;;34.77;18.20;;;14.40;91.90;;;;;;6062340;23;20210;-76
2023/03/23 08:41:14;;;;;;;35.80;19.03;;;14.50;91.90;;;;;;6040071;23;20261;-72
2023/03/23 08:43:43;;;;;;;37.50;18.97;;;14.50;91.80;;;;;;6040118;23;20182;-72
2023/03/23 08:46:11;;;;;;;33.17;17.90;;;14.50;91.90;;;;;;6063166;23;20237;-72
2023/03/23 08:48:39;;;;;;;35.07;19.03;;;14.60;91.90;;;;;;6065114;23;20179;-74
2023/03/23 08:51:08;;;;;;;36.17;19.30;;;14.60;92.00;;;;;;6040318;23;20182;-72
2023/03/23 08:53:36;;;;;;;36.03;19.07;;;14.70;92.00;;;;;;6065668;23;20174;-72
2023/03/23 08:56:05;;;;;;;34.63;18.43;;;14.70;91.90;;;;;;6041961;23;20222;-73
2023/03/23 08:58:33;;;;;;;32.30;17.63;;;14.70;91.80;;;;;;6039917;23;20202;-72
2023/03/23 09:01:02;;;;;;;40.60;19.23;;;14.80;91.70;;;;;;6064618;23;20184;-73
2023/03/23 09:03:29;;;;;;;34.10;17.43;;;14.80;91.60;;;;;;6065655;23;20500;-74
2023/03/23 09:05:59;;;;;;;34.13;18.40;;;14.90;91.60;;;;;;6063473;23;20277;-74
2023/03/23 09:08:28;;;;;;;32.73;16.70;;;14.90;91.30;;;;;;6065166;23;20226;-72
2023/03/23 09:10:56;;;;;;;30.83;15.83;;;15.00;91.40;;;;;;6065457;23;20206;-73
2023/03/23 09:13:23;;;;;;;29.27;15.07;;;15.10;91.30;;;;;;6040500;23;20552;-73
2023/03/23 09:15:51;;;;;;;26.47;16.37;;;15.10;91.10;;;;;;6061864;23;20189;-71
2023/03/23 09:18:23;;;;;;;26.17;14.83;;;15.20;91.20;;;;;;6062905;23;20241;-73
2023/03/23 09:20:52;;;;;;;27.17;15.83;;;15.30;91.00;;;;;;6063528;23;20198;-73
2023/03/23 09:23:20;;;;;;;30.23;15.47;;;15.30;90.60;;;;;;6062371;23;20174;-73
2023/03/23 09:25:47;;;;;;;27.93;15.27;;;15.40;90.50;;;;;;6042013;23;20513;-74
2023/03/23 09:28:15;;;;;;;25.87;14.87;;;15.50;90.70;;;;;;6065782;23;20182;-74
2023/03/23 09:30:43;;;;;;;25.93;14.63;;;15.60;90.50;;;;;;6068243;23;20621;-73
2023/03/23 09:33:11;;;;;;;25.70;14.20;;;15.70;90.50;;;;;;6067517;23;20258;-72
2023/03/23 09:35:41;;;;;;;27.90;14.37;;;15.70;90.20;;;;;;6068218;23;20245;-74
2023/03/23 09:38:12;;;;;;;26.13;14.47;;;15.70;90.20;;;;;;6064945;23;20199;-73
2023/03/23 09:40:48;;;;;;;24.57;13.70;;;15.80;90.10;;;;;;6066422;23;20163;-73
2023/03/23 09:43:32;;;;;;;24.07;14.00;;;15.90;90.10;;;;;;6041587;23;20242;-72
2023/03/23 09:46:11;;;;;;;23.63;13.80;;;16.00;89.60;;;;;;6066021;23;20162;-74
2023/03/23 09:48:47;;;;;;;21.60;13.30;;;16.00;89.40;;;;;;6040238;23;20209;-72
2023/03/23 09:51:30;;;;;;;24.60;13.03;;;16.10;88.90;;;;;;6067530;23;20159;-73
2023/03/23 09:54:03;;;;;;;27.13;12.97;;;16.30;89.00;;;;;;6040899;23;20627;-76
2023/03/23 09:56:33;;;;;;;23.23;12.53;;;16.30;88.00;;;;;;6067178;23;20574;-73
2023/03/23 09:59:07;;;;;;;22.87;12.47;;;16.30;87.70;;;;;;6043958;23;20245;-73
2023/03/23 10:01:38;;;;;;;20.80;11.30;;;16.50;87.70;;;;;;6065006;23;20218;-73
2023/03/23 10:04:11;;;;;;;17.90;11.03;;;16.50;87.60;;;;;;6040690;23;20171;-74
2023/03/23 10:06:40;;;;;;;19.43;10.63;;;16.60;86.80;;;;;;6066117;23;20182;-74
2023/03/23 10:09:11;;;;;;;18.88;11.75;;;16.60;86.20;;;;;;6066804;23;20411;-77
2023/03/23 10:11:48;;;;;;;20.40;10.93;;;16.80;85.30;;;;;;6065105;23;20203;-73
2023/03/23 10:14:27;;;;;;;21.03;11.43;;;16.90;84.80;;;;;;6064844;23;20166;-73
2023/03/23 10:17:03;;;;;;;17.53;10.53;;;16.80;83.20;;;;;;6066138;23;20161;-74
2023/03/23 10:19:38;;;;;;;19.97;10.77;;;16.90;82.40;;;;;;6065498;23;20189;-72
2023/03/23 10:22:11;;;;;;;26.23;10.50;;;17.00;82.30;;;;;;6041764;23;20212;-74
2023/03/23 10:24:48;;;;;;;16.83;9.90;;;17.10;82.10;;;;;;6065173;23;20186;-76
2023/03/23 10:27:24;;;;;;;16.87;9.60;;;17.10;80.70;;;;;;6065294;23;20197;-72
2023/03/23 10:29:56;;;;;;;19.60;9.53;;;17.20;80.70;;;;;;6038403;23;20166;-75
2023/03/23 10:32:41;;;;;;;16.17;8.73;;;17.30;81.40;;;;;;6042469;23;20174;-72
2023/03/23 10:35:14;;;;;;;15.93;8.93;;;17.30;79.20;;;;;;6067008;23;20660;-72
2023/03/23 10:37:47;;;;;;;19.27;10.10;;;17.50;80.00;;;;;;6065991;23;20171;-72
2023/03/23 10:40:19;;;;;;;19.80;10.30;;;17.50;78.50;;;;;;6065540;23;20238;-73
2023/03/23 10:42:47;;;;;;;17.60;9.70;;;17.60;77.50;;;;;;6041276;23;20174;-72
2023/03/23 10:45:21;;;;;;;14.57;8.87;;;17.60;77.80;;;;;;6062402;23;20201;-73
2023/03/23 10:47:52;;;;;;;19.37;9.30;;;17.70;78.60;;;;;;6063722;23;20187;-72
2023/03/23 10:50:30;;;;;;;16.30;9.67;;;17.80;78.60;;;;;;6065630;23;20187;-73
2023/03/23 10:53:01;;;;;;;16.17;8.57;;;17.90;77.50;;;;;;6067067;23;20201;-73
2023/03/23 10:55:39;;;;;;;15.70;9.13;;;18.00;75.90;;;;;;6064813;23;20179;-72
2023/03/23 10:58:09;;;;;;;15.40;9.40;;;18.10;74.60;;;;;;6036777;23;20207;-73
2023/03/23 11:00:44;;;;;;;16.80;9.23;;;18.10;75.50;;;;;;6039023;23;20262;-73
2023/03/23 11:03:40;;;;;;;18.27;10.17;;;18.30;75.70;;;;;;6061367;23;20170;-73
2023/03/23 11:06:10;;;;;;;15.20;8.93;;;18.30;73.20;;;;;;6039208;23;20696;-73
2023/03/23 11:08:49;;;;;;;19.93;10.50;;;18.40;74.00;;;;;;6037676;23;20167;-72
2023/03/23 11:11:19;;;;;;;15.57;9.93;;;18.50;75.10;;;;;;6038405;23;20163;-72
2023/03/23 11:13:48;;;;;;;16.47;9.67;;;18.60;72.70;;;;;;6037973;23;20274;-73
2023/03/23 11:16:25;;;;;;;18.07;9.63;;;18.70;72.00;;;;;;6038065;23;20621;-72
2023/03/23 11:18:52;;;;;;;17.13;10.20;;;18.70;72.00;;;;;;6036980;23;20198;-72
2023/03/23 11:21:22;;;;;;;15.00;9.37;;;18.80;72.20;;;;;;6035471;23;20182;-72
2023/03/23 11:23:53;;;;;;;14.63;9.90;;;18.80;69.90;;;;;;6034385;23;20176;-72
2023/03/23 11:26:24;;;;;;;15.25;9.52;;;18.70;69.00;;;;;;6036689;23;20186;-72
2023/03/23 11:28:56;;;;;;;16.55;9.82;;;18.70;67.80;;;;;;6035334;23;20163;-72
2023/03/23 11:31:25;;;;;;;17.98;10.02;;;18.80;68.90;;;;;;6059228;23;20171;-72
2023/03/23 11:34:00;;;;;;;17.17;9.02;;;18.90;69.20;;;;;;6037903;23;20178;-72
2023/03/23 11:36:33;;;;;;;14.02;8.57;;;19.00;69.70;;;;;;6060615;23;20175;-72
2023/03/23 11:39:05;;;;;;;15.57;9.40;;;19.20;70.40;;;;;;6036534;23;20167;-72
2023/03/23 11:41:36;;;;;;;16.60;9.68;;;19.30;68.40;;;;;;6037822;23;20201;-71
2023/03/23 11:44:12;;;;;;;15.10;10.23;;;19.40;68.60;;;;;;6037507;23;20163;-72
2023/03/23 11:46:47;;;;;;;13.98;9.40;;;19.60;68.80;;;;;;6037814;23;20201;-72
2023/03/23 11:49:25;;;;;;;17.58;8.95;;;19.70;68.70;;;;;;6060248;23;20254;-72
2023/03/23 11:51:58;;;;;;;13.27;8.73;;;19.90;68.60;;;;;;6060398;23;20253;-72
2023/03/23 11:54:31;;;;;;;17.20;9.73;;;19.90;67.90;;;;;;6038138;23;20160;-72
2023/03/23 11:56:58;;;;;;;15.85;9.10;;;20.10;67.30;;;;;;6044066;23;20210;-72
2023/03/23 11:59:35;;;;;;;15.75;9.02;;;20.10;66.50;;;;;;6066989;23;20562;-72
2023/03/23 12:02:20;;;;;;;16.15;9.48;;;20.20;67.00;;;;;;6066716;23;20162;-71
2023/03/23 12:05:17;;;;;;;16.77;8.80;;;20.30;66.80;;;;;;6063067;23;20194;-75
2023/03/23 12:07:57;;;;;;;14.38;9.40;;;20.40;66.10;;;;;;6057649;23;20687;-74
2023/03/23 12:10:33;;;;;;;15.55;9.55;;;20.50;64.90;;;;;;6064135;23;20281;-73
2023/03/23 12:13:14;;;;;;;13.90;9.30;;;20.50;63.10;;;;;;6064629;23;20615;-73
2023/03/23 12:15:51;;;;;;;18.02;9.95;;;20.60;64.10;;;;;;6039945;23;20174;-77
2023/03/23 12:18:28;;;;;;;14.73;9.50;;;20.60;63.20;;;;;;6064118;23;20181;-73
2023/03/23 12:21:07;;;;;;;16.27;10.38;;;20.70;61.50;;;;;;6065034;23;20166;-73
2023/03/23 12:23:42;;;;;;;15.02;8.90;;;20.80;59.70;;;;;;6040032;23;20170;-73
2023/03/23 12:26:21;;;;;;;14.98;9.52;;;20.80;59.40;;;;;;6038420;23;20207;-73
2023/03/23 12:29:05;;;;;;;17.52;9.10;;;21.00;59.20;;;;;;6066173;23;20186;-73
2023/03/23 12:31:40;;;;;;;16.08;9.60;;;21.10;59.20;;;;;;6064034;23;20162;-73
2023/03/23 12:34:18;;;;;;;14.27;9.15;;;21.20;58.40;;;;;;6064887;23;20562;-73
2023/03/23 12:36:57;;;;;;;16.60;9.43;;;21.30;58.70;;;;;;6063698;23;20174;-73
2023/03/23 12:39:57;;;;;;;13.77;8.73;;;21.40;59.00;;;;;;6065802;23;20158;-74
2023/03/23 12:42:36;;;;;;;20.15;9.80;;;21.50;58.20;;;;;;6065172;23;20205;-72
2023/03/23 12:45:22;;;;;;;15.95;8.82;;;21.60;58.60;;;;;;6041477;23;20185;-72
2023/03/23 12:47:53;;;;;;;14.80;9.65;;;21.60;58.90;;;;;;6042400;23;20218;-73